Stations météo

réclame
Mon MeteoGroup
Southampton oceanography centre, Grande-Bretagne (99079): Température de l'air & dewpoint: 17.01.2020 21:00:00 - 23.01.2020 21:00:00 (GMT)Southampton oceanography centre, Grande-Bretagne (99079): Vitesse du vent: 17.01.2020 21:00:00 - 23.01.2020 21:00:00 (GMT)Southampton oceanography centre, Grande-Bretagne (99079): Direction du vent: 17.01.2020 21:00:00 - 23.01.2020 21:00:00 (GMT)
Date & Time tt [°C] td [°C] ff [km/h] ff [knt] dd
23.01.2020 21:00:00 - - - - -
23.01.2020 20:00:00 6,3 4,5 4 2 NE
23.01.2020 19:00:00 6,2 4,3 5 3 NE
23.01.2020 18:00:00 6,4 4,5 5 3 E
23.01.2020 17:00:00 6,5 4,4 8 4 ENE
23.01.2020 16:00:00 6,9 4,5 5 3 ENE
23.01.2020 15:00:00 7,0 4,0 5 3 ENE
23.01.2020 14:00:00 7,0 4,1 5 3 ENE
23.01.2020 13:00:00 7,1 4,0 9 5 ENE
23.01.2020 12:00:00 7,1 4,3 8 4 E
23.01.2020 11:00:00 6,9 4,5 9 5 ENE
23.01.2020 10:00:00 7,0 4,6 9 5 E
23.01.2020 09:00:00 6,9 4,9 8 4 ENE
23.01.2020 08:00:00 6,8 5,3 9 5 ENE
23.01.2020 07:00:00 6,6 5,6 5 3 NNE
23.01.2020 06:00:00 6,7 5,3 5 3 ENE
23.01.2020 05:00:00 6,8 5,2 9 5 ENE
23.01.2020 04:00:00 6,8 5,0 8 4 NE
23.01.2020 03:00:00 6,8 5,0 8 4 ENE
23.01.2020 02:00:00 6,7 5,0 9 5 ENE
23.01.2020 01:00:00 6,8 4,8 9 5 ENE
23.01.2020 00:00:00 6,7 4,7 11 6 ENE
22.01.2020 23:00:00 6,8 5,1 5 3 E
22.01.2020 22:00:00 7,0 5,4 5 3 NE
22.01.2020 21:00:00 7,2 5,4 13 7 NE
22.01.2020 20:00:00 7,2 5,8 8 4 NE
22.01.2020 19:00:00 7,1 6,3 4 2 NNE
22.01.2020 18:00:00 7,0 6,3 5 3 NNE
22.01.2020 17:00:00 7,1 6,2 5 3 NNE
22.01.2020 16:00:00 7,1 6,3 5 3 N
22.01.2020 15:00:00 7,0 6,1 5 3 NNE
22.01.2020 14:00:00 6,6 5,5 5 3 N
22.01.2020 13:00:00 6,0 5,2 4 2 NNE
22.01.2020 12:00:00 5,6 4,6 5 3 NE
22.01.2020 11:00:00 4,9 4,2 8 4 N
22.01.2020 10:00:00 4,5 4,0 4 2 NE
22.01.2020 09:00:00 3,7 3,1 4 2 N
22.01.2020 08:00:00 3,6 3,0 2 1 NNE
22.01.2020 07:00:00 2,9 2,2 5 3 N
22.01.2020 06:00:00 2,6 1,6 5 3 N
22.01.2020 05:00:00 2,4 1,5 2 1 W
22.01.2020 04:00:00 2,0 1,0 2 1 W
22.01.2020 03:00:00 1,6 0,7 4 2 NW
22.01.2020 02:00:00 1,5 0,7 8 4 NNW
22.01.2020 01:00:00 1,3 0,5 4 2 NW
22.01.2020 00:00:00 1,7 0,7 5 3 NW
21.01.2020 23:00:00 2,3 1,3 5 3 NW
21.01.2020 22:00:00 2,5 1,4 5 3 WNW
21.01.2020 21:00:00 3,3 1,9 2 1 NW
21.01.2020 20:00:00 3,6 2,2 5 3 NW
21.01.2020 19:00:00 4,8 2,6 2 1 WNW
21.01.2020 18:00:00 6,2 2,5 4 2 N
21.01.2020 17:00:00 6,9 2,5 2 1 N
21.01.2020 16:00:00 8,6 2,8 2 1 ESE
21.01.2020 15:00:00 8,6 3,1 5 3 N
21.01.2020 14:00:00 8,2 3,0 4 2 NNE
21.01.2020 13:00:00 7,1 2,9 8 4 NNE
21.01.2020 12:00:00 5,7 2,7 4 2 N
21.01.2020 11:00:00 4,4 2,3 2 1 WSW
21.01.2020 10:00:00 0,6 -0,4 2 1 NNW
21.01.2020 09:00:00 -0,6 -1,4 4 2 NW
21.01.2020 08:00:00 -0,7 -1,3 2 1 N
21.01.2020 07:00:00 -0,9 -1,5 2 1 NNW
21.01.2020 06:00:00 -0,7 -1,3 4 2 NW
21.01.2020 05:00:00 -0,1 -0,8 8 4 N
21.01.2020 04:00:00 0,2 -0,7 4 2 NNW
21.01.2020 03:00:00 0,1 -0,7 4 2 N
21.01.2020 02:00:00 0,8 -0,2 2 1 NW
21.01.2020 01:00:00 1,3 0,4 4 2 NNW
21.01.2020 00:00:00 1,4 0,4 2 1 W
20.01.2020 23:00:00 2,1 0,6 2 1 S
20.01.2020 22:00:00 2,4 0,6 2 1 N
20.01.2020 21:00:00 2,8 0,9 4 2 NW
20.01.2020 20:00:00 3,3 1,2 4 2 W
20.01.2020 19:00:00 4,2 1,3 4 2 WNW
20.01.2020 18:00:00 5,2 1,0 2 1 W
20.01.2020 17:00:00 6,9 0,6 5 3 NNW
20.01.2020 16:00:00 8,5 0,9 8 4 WNW
20.01.2020 15:00:00 9,4 1,1 5 3 W
20.01.2020 14:00:00 6,5 0,1 8 4 WNW
20.01.2020 13:00:00 6,8 0,3 4 2 S
20.01.2020 12:00:00 7,9 2,2 4 2 W
20.01.2020 11:00:00 4,6 2,3 5 3 W
20.01.2020 10:00:00 2,7 1,2 4 2 NW
20.01.2020 09:00:00 2,6 0,9 4 2 NW
20.01.2020 08:00:00 1,7 0,6 4 2 NNW
20.01.2020 07:00:00 1,2 0,0 2 1 S
20.01.2020 06:00:00 1,3 -0,3 4 2 NW
20.01.2020 05:00:00 1,4 -0,1 2 1 SE
20.01.2020 04:00:00 1,5 -0,1 2 1 E
20.01.2020 03:00:00 1,3 -0,3 5 3 NW
20.01.2020 02:00:00 0,7 -0,6 4 2 NW
20.01.2020 01:00:00 1,3 0,1 5 3 WNW
20.01.2020 00:00:00 1,4 0,0 5 3 NW
19.01.2020 23:00:00 1,8 -0,5 4 2 N
19.01.2020 22:00:00 2,4 -0,1 4 2 N
19.01.2020 21:00:00 3,0 0,1 4 2 NNW
19.01.2020 20:00:00 3,8 0,4 5 3 NNW
19.01.2020 19:00:00 5,1 0,2 5 3 N
19.01.2020 18:00:00 5,5 0,6 5 3 NNW
19.01.2020 17:00:00 6,3 0,8 8 4 NNW
19.01.2020 16:00:00 7,4 0,8 8 4 N
19.01.2020 15:00:00 7,9 0,9 8 4 N
19.01.2020 14:00:00 7,7 1,1 8 4 N
19.01.2020 13:00:00 7,0 0,8 8 4 NNE
19.01.2020 12:00:00 5,9 0,4 8 4 N
19.01.2020 11:00:00 4,3 1,4 9 5 NW
19.01.2020 10:00:00 2,6 0,6 8 4 N
19.01.2020 09:00:00 1,5 0,3 8 4 NNW
19.01.2020 08:00:00 0,7 -0,3 5 3 NW
19.01.2020 07:00:00 1,2 0,2 5 3 WNW
19.01.2020 06:00:00 0,8 -0,4 4 2 NW
19.01.2020 05:00:00 1,2 -0,2 8 4 NW
19.01.2020 04:00:00 1,5 -0,2 5 3 NW
19.01.2020 03:00:00 1,8 -0,2 5 3 NW
19.01.2020 02:00:00 1,8 -0,2 8 4 NNW
19.01.2020 01:00:00 2,1 -0,1 9 5 NNW
19.01.2020 00:00:00 2,3 0,1 8 4 NW
18.01.2020 23:00:00 2,4 0,4 5 3 WNW
18.01.2020 22:00:00 2,8 0,8 9 5 NW
18.01.2020 21:00:00 3,4 1,2 9 5 NW
18.01.2020 20:00:00 4,4 1,5 4 2 NW
18.01.2020 19:00:00 5,3 0,9 5 3 N
18.01.2020 18:00:00 5,8 1,1 5 3 NNW
18.01.2020 17:00:00 6,3 0,7 8 4 NNW
18.01.2020 16:00:00 7,2 0,0 5 3 N
18.01.2020 15:00:00 7,7 0,2 8 4 N
18.01.2020 14:00:00 8,0 0,9 9 5 NNW
18.01.2020 13:00:00 7,3 1,5 11 6 N
18.01.2020 12:00:00 6,5 3,1 5 3 N
18.01.2020 11:00:00 5,7 2,9 4 2 N
18.01.2020 10:00:00 3,2 2,0 8 4 NW
18.01.2020 09:00:00 2,3 1,5 4 2 WNW
18.01.2020 08:00:00 1,4 0,8 4 2 NW
18.01.2020 07:00:00 1,8 1,1 5 3 WNW
18.01.2020 06:00:00 2,3 1,6 5 3 WNW
18.01.2020 05:00:00 2,4 1,5 5 3 W
18.01.2020 04:00:00 2,4 1,4 5 3 W
18.01.2020 03:00:00 3,0 1,6 8 4 WSW
18.01.2020 02:00:00 3,7 1,9 11 6 W
18.01.2020 01:00:00 3,6 2,0 15 8 W
18.01.2020 00:00:00 3,7 1,9 9 5 W
17.01.2020 23:00:00 3,8 1,9 9 5 NW
17.01.2020 22:00:00 4,1 1,8 13 7 WNW
17.01.2020 21:00:00 4,8 2,0 13 7 WNW

tt = Température de l'air
td = dewpoint
ff = Vitesse du vent
dd = Direction du vent

stations d'obs. à proximité